Paradas, Spain
Current Conditions -  °F | °C
As of 5:00 AM on Saturday 29 Nov 2014 (Local Time) from LEMO Reporting Station
Scattered Clouds Scattered Clouds  
Wind Chill: 50°   Ceiling: Unl
Heat Index: 50°   Visibility: 6mi
Dew Point: 48°   Wind: 6mph
Humidity: 94%   Direction: 60°ENE
Pressure: 29.23"   Gusts: NA
Location:  37.29°N, 5.5°W
Report Text: LEMO 290400Z 06005KT 9999 SCT0350 10/09 Q0990 NOSIG
Loading
Personal Weather Stations






























Interactive Weather Map New forecast layout! Learn more

10-Day Weather Forecast

Advertisements
Track Severe Weather on mobile